createdAt,value
2018-02-07T00:00:29.594Z,-1.50
2018-02-07T00:02:57.833Z,-1.40
2018-02-07T00:05:25.310Z,-1.50
2018-02-07T00:07:53.259Z,-1.40
2018-02-07T00:10:20.748Z,-1.50
2018-02-07T00:12:48.218Z,-1.40
2018-02-07T00:15:15.738Z,-1.40
2018-02-07T00:17:43.229Z,-1.40
2018-02-07T00:20:12.197Z,-1.50
2018-02-07T00:22:39.673Z,-1.50
2018-02-07T00:25:07.158Z,-1.50
2018-02-07T00:27:35.405Z,-1.40
2018-02-07T00:30:02.882Z,-1.50
2018-02-07T00:32:31.141Z,-1.50
2018-02-07T00:34:58.614Z,-1.50
2018-02-07T00:37:26.140Z,-1.50
2018-02-07T00:39:53.620Z,-1.50
2018-02-07T00:42:21.103Z,-1.40
2018-02-07T00:44:49.338Z,-1.40
2018-02-07T00:47:16.838Z,-1.40
2018-02-07T00:49:45.070Z,-1.40
2018-02-07T00:52:12.544Z,-1.50
2018-02-07T00:54:40.004Z,-1.50
2018-02-07T00:57:07.492Z,-1.50
2018-02-07T00:59:35.879Z,-1.50
2018-02-07T01:02:04.135Z,-1.50
2018-02-07T01:04:31.605Z,-1.50
2018-02-07T01:06:59.844Z,-1.50
2018-02-07T01:09:27.337Z,-1.50
2018-02-07T01:11:55.562Z,-1.50
2018-02-07T01:14:23.050Z,-1.60
2018-02-07T01:16:51.282Z,-1.60
2018-02-07T01:19:18.765Z,-1.60
2018-02-07T01:21:46.231Z,-1.60
2018-02-07T01:24:13.719Z,-1.60
2018-02-07T01:26:41.965Z,-1.50
2018-02-07T01:29:09.442Z,-1.50
2018-02-07T01:31:36.923Z,-1.50
2018-02-07T01:34:05.177Z,-1.50
2018-02-07T01:36:32.665Z,-1.50
2018-02-07T01:39:00.145Z,-1.60
2018-02-07T01:41:27.621Z,-1.60
2018-02-07T01:43:55.106Z,-1.50
2018-02-07T01:46:22.596Z,-1.60
2018-02-07T01:48:50.086Z,-1.50
2018-02-07T01:51:17.579Z,-1.60
2018-02-07T01:53:45.818Z,-1.60
2018-02-07T01:56:13.290Z,-1.60
2018-02-07T01:58:40.773Z,-1.70
2018-02-07T02:01:08.240Z,-1.60
2018-02-07T02:03:36.507Z,-1.60
2018-02-07T02:06:03.995Z,-1.70
2018-02-07T02:08:32.240Z,-1.70
2018-02-07T02:10:59.706Z,-1.70
2018-02-07T02:13:27.217Z,-1.70
2018-02-07T02:15:54.685Z,-1.70
2018-02-07T02:18:22.175Z,-1.70
2018-02-07T02:20:49.643Z,-1.70
2018-02-07T02:23:17.152Z,-1.70
2018-02-07T02:25:44.852Z,-1.70
2018-02-07T02:28:12.575Z,-1.80
2018-02-07T02:30:40.075Z,-1.70
2018-02-07T02:33:07.549Z,-1.70
2018-02-07T02:35:35.026Z,-1.70
2018-02-07T02:38:03.274Z,-1.70
2018-02-07T02:40:30.734Z,-1.70
2018-02-07T02:42:58.984Z,-1.70
2018-02-07T02:45:26.442Z,-1.70
2018-02-07T02:47:54.369Z,-1.70
2018-02-07T02:50:22.107Z,-1.70
2018-02-07T02:52:49.581Z,-1.70
2018-02-07T02:55:17.827Z,-1.70
2018-02-07T02:57:45.330Z,-1.80
2018-02-07T03:00:12.824Z,-1.70
2018-02-07T03:02:40.290Z,-1.80
2018-02-07T03:05:07.785Z,-1.80
2018-02-07T03:07:35.257Z,-1.80
2018-02-07T03:10:02.746Z,-1.80
2018-02-07T03:12:30.262Z,-1.80
2018-02-07T03:14:58.511Z,-1.80
2018-02-07T03:17:26.001Z,-1.80
2018-02-07T03:19:54.275Z,-1.80
2018-02-07T03:22:21.750Z,-1.80
2018-02-07T03:24:49.231Z,-1.80
2018-02-07T03:27:16.691Z,-1.80
2018-02-07T03:29:44.182Z,-1.90
2018-02-07T03:32:11.672Z,-1.90
2018-02-07T03:34:40.262Z,-1.90
2018-02-07T03:37:07.757Z,-2.00
2018-02-07T03:39:35.240Z,-2.00
2018-02-07T03:42:02.722Z,-1.90
2018-02-07T03:44:30.969Z,-2.00
2018-02-07T03:46:58.445Z,-2.00
2018-02-07T03:49:25.914Z,-2.00
2018-02-07T03:51:54.178Z,-2.00
2018-02-07T03:54:21.650Z,-2.00
2018-02-07T03:56:49.955Z,-2.00
2018-02-07T03:59:17.447Z,-2.10
2018-02-07T04:01:44.935Z,-2.00
2018-02-07T04:04:12.442Z,-2.10
2018-02-07T04:06:39.931Z,-2.10
2018-02-07T04:09:07.430Z,-2.10
2018-02-07T04:11:35.665Z,-2.20
2018-02-07T04:14:03.141Z,-2.20
2018-02-07T04:16:30.646Z,-2.20
2018-02-07T04:18:58.142Z,-2.20
2018-02-07T04:21:25.603Z,-2.20
2018-02-07T04:23:53.100Z,-2.20
2018-02-07T04:26:21.327Z,-2.20
2018-02-07T04:28:48.810Z,-2.20
2018-02-07T04:31:17.060Z,-2.20
2018-02-07T04:33:44.532Z,-2.30
2018-02-07T04:36:12.023Z,-2.30
2018-02-07T04:38:40.297Z,-2.30
2018-02-07T04:41:07.771Z,-2.30
2018-02-07T04:43:36.042Z,-2.20
2018-02-07T04:46:04.271Z,-2.20
2018-02-07T04:48:31.762Z,-2.20
2018-02-07T04:50:59.238Z,-2.20
2018-02-07T04:53:27.469Z,-2.20
2018-02-07T04:55:54.975Z,-2.20
2018-02-07T04:58:23.206Z,-2.10
2018-02-07T05:00:50.703Z,-2.20
2018-02-07T05:03:19.099Z,-2.20
2018-02-07T05:05:46.577Z,-2.20
2018-02-07T05:08:14.073Z,-2.20
2018-02-07T05:10:41.544Z,-2.20
2018-02-07T05:13:09.055Z,-2.20
2018-02-07T05:15:36.531Z,-2.20
2018-02-07T05:18:04.457Z,-2.20
2018-02-07T05:20:31.928Z,-2.20
2018-02-07T05:22:59.425Z,-2.20
2018-02-07T05:25:26.926Z,-2.30
2018-02-07T05:27:55.636Z,-2.30
2018-02-07T05:30:23.106Z,-2.30
2018-02-07T05:32:50.581Z,-2.30
2018-02-07T05:35:18.844Z,-2.40
2018-02-07T05:37:46.334Z,-2.30
2018-02-07T05:40:13.835Z,-2.40
2018-02-07T05:42:41.305Z,-2.40
2018-02-07T05:45:08.804Z,-2.40
2018-02-07T05:47:36.306Z,-2.40
2018-02-07T05:50:04.562Z,-2.40
2018-02-07T05:52:32.045Z,-2.40
2018-02-07T05:54:59.540Z,-2.50
2018-02-07T05:57:27.035Z,-2.40
2018-02-07T05:59:58.500Z,-2.50
2018-02-07T06:02:26.072Z,-2.50
2018-02-07T06:04:54.321Z,-2.50
2018-02-07T06:07:23.303Z,-2.50
2018-02-07T06:09:50.784Z,-2.50
2018-02-07T06:12:19.042Z,-2.50
2018-02-07T06:14:46.513Z,-2.50
2018-02-07T06:17:14.009Z,-2.50
2018-02-07T06:19:41.503Z,-2.60
2018-02-07T06:22:09.002Z,-2.70
2018-02-07T06:24:37.233Z,-2.70
2018-02-07T06:27:04.739Z,-2.70
2018-02-07T06:29:32.997Z,-2.80
2018-02-07T06:32:00.588Z,-2.80
2018-02-07T06:34:28.072Z,-2.80
2018-02-07T06:36:55.554Z,-2.80
2018-02-07T06:39:23.032Z,-2.80
2018-02-07T06:41:50.505Z,-2.80
2018-02-07T06:44:18.749Z,-2.90
2018-02-07T06:46:46.230Z,-2.90
2018-02-07T06:49:13.704Z,-3.00
2018-02-07T06:51:41.960Z,-3.20
2018-02-07T06:54:09.497Z,-3.20
2018-02-07T06:56:36.970Z,-3.30
2018-02-07T06:59:04.458Z,-3.40
2018-02-07T07:01:32.702Z,-3.50
2018-02-07T07:04:00.266Z,-3.50
2018-02-07T07:06:27.780Z,-3.60
2018-02-07T07:08:55.285Z,-3.60
2018-02-07T07:11:22.777Z,-3.60
2018-02-07T07:13:51.008Z,-3.60
2018-02-07T07:16:18.807Z,-3.60
2018-02-07T07:18:47.058Z,-3.60
2018-02-07T07:21:14.539Z,-3.60
2018-02-07T07:23:43.193Z,-3.70
2018-02-07T07:26:10.672Z,-3.70
2018-02-07T07:28:38.167Z,-3.70
2018-02-07T07:31:05.644Z,-3.60
2018-02-07T07:33:33.130Z,-3.60
2018-02-07T07:36:00.608Z,-3.70
2018-02-07T07:38:28.355Z,-3.70
2018-02-07T07:40:55.843Z,-3.70
2018-02-07T07:43:24.075Z,-3.70
2018-02-07T07:45:51.558Z,-3.70
2018-02-07T07:48:19.043Z,-3.70
2018-02-07T07:50:47.313Z,-3.70
2018-02-07T07:53:15.552Z,-3.70
2018-02-07T07:55:43.054Z,-3.70
2018-02-07T07:58:11.356Z,-3.40
2018-02-07T08:00:39.565Z,-3.40
2018-02-07T08:03:07.050Z,-3.40
2018-02-07T08:05:35.296Z,-3.20
2018-02-07T08:08:02.803Z,-3.30
2018-02-07T08:10:31.040Z,-3.20
2018-02-07T08:12:59.289Z,-3.10
2018-02-07T08:15:26.787Z,-3.10
2018-02-07T08:17:54.274Z,-3.10
2018-02-07T08:20:22.519Z,-3.00
2018-02-07T08:22:50.025Z,-3.00
2018-02-07T08:25:17.505Z,-3.00
2018-02-07T08:27:44.976Z,-3.00
2018-02-07T08:30:12.450Z,-3.10
2018-02-07T08:32:39.934Z,-3.10
2018-02-07T08:35:08.162Z,-3.00
2018-02-07T08:37:35.685Z,-3.00
2018-02-07T08:40:03.138Z,-3.00
2018-02-07T08:42:30.637Z,-3.00
2018-02-07T08:44:58.114Z,-2.90
2018-02-07T08:47:25.610Z,-2.80
2018-02-07T08:49:53.859Z,-2.80
2018-02-07T08:52:21.328Z,-2.80
2018-02-07T08:54:49.581Z,-2.70
2018-02-07T08:57:17.055Z,-2.70
2018-02-07T08:59:44.542Z,-2.80
2018-02-07T09:02:12.028Z,-2.80
2018-02-07T09:04:39.507Z,-2.90
2018-02-07T09:07:07.207Z,-2.90
2018-02-07T09:09:35.474Z,-3.10
2018-02-07T09:12:02.938Z,-3.10
2018-02-07T09:14:30.429Z,-3.10
2018-02-07T09:16:57.910Z,-3.10
2018-02-07T09:19:25.403Z,-3.00
2018-02-07T09:21:52.884Z,-3.00
2018-02-07T09:24:21.118Z,-3.00
2018-02-07T09:26:48.603Z,-3.00
2018-02-07T09:29:17.022Z,-2.80
2018-02-07T09:31:44.493Z,-2.90
2018-02-07T09:34:11.980Z,-2.80
2018-02-07T09:36:39.449Z,-2.90
2018-02-07T09:39:07.061Z,-2.90
2018-02-07T09:41:34.538Z,-3.00
2018-02-07T09:44:02.001Z,-3.00
2018-02-07T09:46:29.518Z,-3.00
2018-02-07T09:48:56.999Z,-2.90
2018-02-07T09:51:24.678Z,-2.80
2018-02-07T09:53:52.157Z,-2.70
2018-02-07T09:56:19.690Z,-2.70
2018-02-07T09:58:47.161Z,-2.60
2018-02-07T10:01:14.647Z,-2.60
2018-02-07T10:03:42.158Z,-2.60
2018-02-07T10:06:09.658Z,-2.60
2018-02-07T10:08:37.178Z,-2.60
2018-02-07T10:11:04.649Z,-2.50
2018-02-07T10:13:32.163Z,-2.40
2018-02-07T10:15:59.655Z,-2.30
2018-02-07T10:18:27.138Z,-2.30
2018-02-07T10:20:54.612Z,-2.30
2018-02-07T10:23:22.135Z,-2.20
2018-02-07T10:25:49.598Z,-2.20
2018-02-07T10:28:17.098Z,-2.10
2018-02-07T10:30:44.574Z,-1.90
2018-02-07T10:33:12.807Z,-2.00
2018-02-07T10:35:40.380Z,-2.00
2018-02-07T10:38:07.852Z,-1.80
2018-02-07T10:40:36.115Z,-1.60
2018-02-07T10:43:03.685Z,-1.60
2018-02-07T10:45:31.174Z,-1.60
2018-02-07T10:47:58.639Z,-1.70
2018-02-07T10:50:26.126Z,-1.60
2018-02-07T10:52:53.606Z,-1.70
2018-02-07T10:55:21.092Z,-1.70
2018-02-07T10:57:49.337Z,-1.70
2018-02-07T11:00:16.808Z,-1.70
2018-02-07T11:02:44.299Z,-1.60
2018-02-07T11:05:11.786Z,-1.40
2018-02-07T11:07:39.278Z,-1.40
2018-02-07T11:10:06.766Z,-1.30
2018-02-07T11:12:35.034Z,-1.30
2018-02-07T11:15:03.333Z,-1.20
2018-02-07T11:17:30.919Z,-1.30
2018-02-07T11:19:59.477Z,-1.20
2018-02-07T11:22:26.973Z,-1.20
2018-02-07T11:24:54.447Z,-1.40
2018-02-07T11:27:21.942Z,-1.40
2018-02-07T11:29:50.192Z,-1.30
2018-02-07T11:32:17.674Z,-1.30
2018-02-07T11:34:45.926Z,-1.50
2018-02-07T11:37:14.192Z,-1.50
2018-02-07T11:39:41.668Z,-1.50
2018-02-07T11:42:09.187Z,-1.60
2018-02-07T11:44:36.657Z,-1.60
2018-02-07T11:47:04.147Z,-1.70
2018-02-07T11:49:31.636Z,-1.50
2018-02-07T11:51:59.117Z,-1.60
2018-02-07T11:54:26.755Z,-1.70
2018-02-07T11:56:54.249Z,-1.80
2018-02-07T11:59:21.761Z,-1.80
2018-02-07T12:01:49.334Z,-1.70
2018-02-07T12:04:16.762Z,-1.60
2018-02-07T12:06:45.020Z,-1.40
2018-02-07T12:09:12.504Z,-1.50
2018-02-07T12:11:39.962Z,-1.40
2018-02-07T12:14:08.221Z,-1.50
2018-02-07T12:16:36.048Z,-1.50
2018-02-07T12:19:03.726Z,-1.50
2018-02-07T12:21:31.262Z,-1.40
2018-02-07T12:23:59.029Z,-1.20
2018-02-07T12:26:26.521Z,-1.10
2018-02-07T12:28:55.245Z,-1.00
2018-02-07T12:31:23.488Z,-0.80
2018-02-07T12:33:51.144Z,-0.80
2018-02-07T12:36:18.646Z,-0.70
2018-02-07T12:38:46.883Z,-0.50
2018-02-07T12:41:14.616Z,-0.50
2018-02-07T12:43:42.102Z,-0.50
2018-02-07T12:46:09.614Z,-0.40
2018-02-07T12:48:37.097Z,-0.30
2018-02-07T12:51:04.610Z,-0.40
2018-02-07T12:53:32.098Z,-0.40
2018-02-07T12:55:59.596Z,-0.40
2018-02-07T12:58:27.098Z,-0.30
2018-02-07T13:00:54.574Z,-0.20
2018-02-07T13:03:22.271Z,-0.20
2018-02-07T13:05:49.757Z,-0.20
2018-02-07T13:08:17.275Z,-0.20
2018-02-07T13:10:45.964Z,-0.20
2018-02-07T13:13:13.458Z,-0.30
2018-02-07T13:15:40.996Z,-0.40
2018-02-07T13:18:08.469Z,-0.50
2018-02-07T13:20:35.986Z,-0.60
2018-02-07T13:23:03.572Z,-0.60
2018-02-07T13:25:31.087Z,-0.60
2018-02-07T13:27:59.092Z,-0.60
2018-02-07T13:30:26.611Z,-0.50
2018-02-07T13:32:54.879Z,-0.50
2018-02-07T13:35:22.373Z,-0.50
2018-02-07T13:37:50.035Z,-0.40
2018-02-07T13:40:18.174Z,-0.50
2018-02-07T13:42:46.463Z,-0.60
2018-02-07T13:45:14.157Z,-0.60
2018-02-07T13:47:41.659Z,-0.60
2018-02-07T13:50:09.170Z,-0.60
2018-02-07T13:52:36.674Z,-0.50
2018-02-07T13:55:04.167Z,-0.60
2018-02-07T13:57:32.412Z,-0.60
2018-02-07T14:00:00.823Z,-0.60
2018-02-07T14:02:29.078Z,-0.60
2018-02-07T14:04:56.561Z,-0.60
2018-02-07T14:07:24.871Z,-0.50
2018-02-07T14:09:54.733Z,-0.50
2018-02-07T14:12:22.570Z,-0.40
2018-02-07T14:14:50.278Z,-0.40
2018-02-07T14:17:17.759Z,-0.30
2018-02-07T14:19:46.740Z,-0.30
2018-02-07T14:22:16.942Z,-0.20
2018-02-07T14:24:48.779Z,-0.20
2018-02-07T14:27:17.211Z,-0.30
2018-02-07T14:29:44.717Z,-0.30
2018-02-07T14:32:12.260Z,-0.30
2018-02-07T14:34:40.597Z,-0.30
2018-02-07T14:37:08.081Z,-0.30
2018-02-07T14:39:35.570Z,-0.20
2018-02-07T14:42:03.848Z,0.00
2018-02-07T14:44:32.237Z,0.30
2018-02-07T14:46:59.737Z,0.30
2018-02-07T14:49:27.271Z,0.30
2018-02-07T14:51:54.772Z,0.40
2018-02-07T14:54:22.297Z,0.40
2018-02-07T14:56:50.535Z,0.40
2018-02-07T14:59:18.379Z,0.40
2018-02-07T15:01:45.871Z,0.40
2018-02-07T15:04:13.377Z,0.30
2018-02-07T15:06:40.882Z,0.30
2018-02-07T15:09:08.352Z,0.20
2018-02-07T15:11:35.863Z,0.20
2018-02-07T15:14:03.427Z,0.20
2018-02-07T15:16:30.908Z,0.20
2018-02-07T15:18:58.402Z,0.20
2018-02-07T15:21:25.889Z,0.30
2018-02-07T15:23:53.372Z,0.30
2018-02-07T15:26:20.869Z,0.30
2018-02-07T15:28:48.382Z,0.20
2018-02-07T15:31:15.914Z,0.20
2018-02-07T15:33:44.164Z,0.10
2018-02-07T15:36:11.656Z,0.00
2018-02-07T15:38:39.932Z,-0.10
2018-02-07T15:41:08.178Z,-0.10
2018-02-07T15:43:35.690Z,-0.20
2018-02-07T15:46:03.172Z,-0.20
2018-02-07T15:48:30.670Z,-0.30
2018-02-07T15:50:58.912Z,-0.50
2018-02-07T15:53:26.409Z,-0.50
2018-02-07T15:55:54.720Z,-0.60
2018-02-07T15:58:22.202Z,-0.60
2018-02-07T16:00:49.683Z,-0.70
2018-02-07T16:03:17.178Z,-0.70
2018-02-07T16:05:44.702Z,-0.80
2018-02-07T16:08:12.217Z,-0.90
2018-02-07T16:10:39.697Z,-0.90
2018-02-07T16:13:07.177Z,-1.00
2018-02-07T16:15:35.483Z,-1.20
2018-02-07T16:18:03.781Z,-1.30
2018-02-07T16:20:31.265Z,-1.30
2018-02-07T16:22:58.742Z,-1.30
2018-02-07T16:25:26.250Z,-1.40
2018-02-07T16:27:53.818Z,-1.50
2018-02-07T16:30:21.314Z,-1.60
2018-02-07T16:32:48.842Z,-1.70
2018-02-07T16:35:16.332Z,-1.80
2018-02-07T16:37:43.834Z,-1.90
2018-02-07T16:40:12.106Z,-2.10
2018-02-07T16:42:40.392Z,-2.10
2018-02-07T16:45:09.044Z,-2.30
2018-02-07T16:47:36.529Z,-2.30
2018-02-07T16:50:04.863Z,-2.40
2018-02-07T16:52:32.356Z,-2.40
2018-02-07T16:55:00.622Z,-2.50
2018-02-07T16:57:32.326Z,-2.60
2018-02-07T16:59:59.937Z,-2.60
2018-02-07T17:02:28.259Z,-2.60
2018-02-07T17:04:55.992Z,-2.70
2018-02-07T17:07:25.143Z,-2.70
2018-02-07T17:09:53.022Z,-2.70
2018-02-07T17:12:25.147Z,-2.70
2018-02-07T17:14:55.281Z,-2.80
2018-02-07T17:17:23.495Z,-2.80
2018-02-07T17:19:53.370Z,-2.90
2018-02-07T17:22:21.983Z,-3.00
2018-02-07T17:24:50.137Z,-3.00
2018-02-07T17:27:18.634Z,-3.10
2018-02-07T17:29:46.795Z,-3.10
2018-02-07T17:32:15.378Z,-3.10
2018-02-07T17:34:43.245Z,-3.20
2018-02-07T17:37:10.901Z,-3.20
2018-02-07T17:39:38.400Z,-3.20
2018-02-07T17:42:05.976Z,-3.10
2018-02-07T17:44:33.623Z,-3.10
2018-02-07T17:47:01.125Z,-3.10
2018-02-07T17:49:28.674Z,-3.20
2018-02-07T17:51:56.935Z,-3.50
2018-02-07T17:54:24.422Z,-3.50
2018-02-07T17:56:52.653Z,-3.70
2018-02-07T17:59:20.166Z,-3.70
2018-02-07T18:01:47.681Z,-3.70
2018-02-07T18:04:15.179Z,-3.70
2018-02-07T18:06:42.760Z,-3.80
2018-02-07T18:09:10.796Z,-3.80
2018-02-07T18:11:39.072Z,-3.80
2018-02-07T18:14:07.320Z,-3.80
2018-02-07T18:16:34.797Z,-3.80
2018-02-07T18:19:02.357Z,-3.80
2018-02-07T18:21:29.889Z,-3.80
2018-02-07T18:23:57.433Z,-3.90
2018-02-07T18:26:24.981Z,-3.90
2018-02-07T18:28:52.465Z,-4.00
2018-02-07T18:31:20.114Z,-4.00
2018-02-07T18:33:47.600Z,-4.00
2018-02-07T18:36:15.122Z,-3.90
2018-02-07T18:38:42.600Z,-3.90
2018-02-07T18:41:10.121Z,-4.00
2018-02-07T18:43:38.365Z,-4.10
2018-02-07T18:46:05.888Z,-4.10
2018-02-07T18:48:33.386Z,-4.10
2018-02-07T18:51:00.893Z,-4.20
2018-02-07T18:53:28.373Z,-4.30
2018-02-07T18:55:55.858Z,-4.40
2018-02-07T18:58:23.478Z,-4.40
2018-02-07T19:00:51.040Z,-4.40
2018-02-07T19:03:18.518Z,-4.50
2018-02-07T19:05:46.022Z,-4.50
2018-02-07T19:08:14.312Z,-4.60
2018-02-07T19:10:41.798Z,-4.60
2018-02-07T19:13:09.313Z,-4.50
2018-02-07T19:15:38.594Z,-4.60
2018-02-07T19:18:06.088Z,-4.60
2018-02-07T19:20:33.560Z,-4.70
2018-02-07T19:23:01.189Z,-4.70
2018-02-07T19:25:29.428Z,-4.90
2018-02-07T19:27:56.918Z,-4.90
2018-02-07T19:30:24.692Z,-4.90
2018-02-07T19:32:52.156Z,-4.90
2018-02-07T19:35:20.451Z,-5.00
2018-02-07T19:37:48.599Z,-5.00
2018-02-07T19:40:16.175Z,-5.10
2018-02-07T19:42:43.654Z,-5.10
2018-02-07T19:45:11.265Z,-5.10
2018-02-07T19:47:38.790Z,-5.20
2018-02-07T19:50:06.684Z,-5.20
2018-02-07T19:52:35.007Z,-5.30
2018-02-07T19:55:02.855Z,-5.30
2018-02-07T19:57:31.241Z,-5.30
2018-02-07T19:59:59.149Z,-5.40
2018-02-07T20:02:27.507Z,-5.30
2018-02-07T20:04:55.010Z,-5.40
2018-02-07T20:07:23.202Z,-5.40
2018-02-07T20:09:52.392Z,-5.50
2018-02-07T20:12:20.332Z,-5.50
2018-02-07T20:14:47.853Z,-5.60
2018-02-07T20:17:16.617Z,-5.60
2018-02-07T20:19:44.236Z,-5.60
2018-02-07T20:22:12.904Z,-5.70
2018-02-07T20:24:40.526Z,-5.70
2018-02-07T20:27:08.119Z,-5.80
2018-02-07T20:29:35.877Z,-5.80
2018-02-07T20:32:03.367Z,-5.80
2018-02-07T20:34:31.226Z,-5.90
2018-02-07T20:36:58.717Z,-6.00
2018-02-07T20:39:26.338Z,-6.00
2018-02-07T20:41:53.942Z,-6.00
2018-02-07T20:44:21.435Z,-6.00
2018-02-07T20:46:49.700Z,-6.00
2018-02-07T20:49:17.723Z,-6.10
2018-02-07T20:51:45.202Z,-6.10
2018-02-07T20:54:12.721Z,-6.20
2018-02-07T20:56:40.243Z,-6.20
2018-02-07T20:59:07.717Z,-6.20
2018-02-07T21:01:35.990Z,-6.30
2018-02-07T21:04:04.253Z,-6.30
2018-02-07T21:06:31.829Z,-6.40
2018-02-07T21:09:00.131Z,-6.40
2018-02-07T21:11:27.673Z,-6.40
2018-02-07T21:13:55.166Z,-6.40
2018-02-07T21:16:22.727Z,-6.40
2018-02-07T21:18:50.218Z,-6.40
2018-02-07T21:21:17.746Z,-6.50
2018-02-07T21:23:48.130Z,-6.50
2018-02-07T21:26:16.733Z,-6.60
2018-02-07T21:28:44.229Z,-6.60
2018-02-07T21:31:11.705Z,-6.60
2018-02-07T21:33:39.193Z,-6.70
2018-02-07T21:36:07.452Z,-6.70
2018-02-07T21:38:35.700Z,-6.60
2018-02-07T21:41:03.189Z,-6.70
2018-02-07T21:43:30.762Z,-6.70
2018-02-07T21:45:59.009Z,-6.80
2018-02-07T21:48:26.492Z,-6.80
2018-02-07T21:50:54.760Z,-6.80
2018-02-07T21:53:22.249Z,-6.90
2018-02-07T21:55:49.712Z,-6.90
2018-02-07T21:58:17.198Z,-6.80
2018-02-07T22:00:44.679Z,-6.80
2018-02-07T22:03:12.173Z,-6.90
2018-02-07T22:05:40.404Z,-7.10
2018-02-07T22:08:07.913Z,-7.10
2018-02-07T22:10:36.191Z,-7.00
2018-02-07T22:13:04.439Z,-7.00
2018-02-07T22:15:31.922Z,-7.10
2018-02-07T22:18:00.184Z,-7.10
2018-02-07T22:20:27.701Z,-7.10
2018-02-07T22:22:55.313Z,-7.20
2018-02-07T22:25:23.566Z,-7.20
2018-02-07T22:27:51.046Z,-7.20
2018-02-07T22:30:19.455Z,-7.30
2018-02-07T22:32:46.954Z,-7.30
2018-02-07T22:35:14.481Z,-7.20
2018-02-07T22:37:42.701Z,-7.30
2018-02-07T22:40:10.215Z,-7.30
2018-02-07T22:42:37.691Z,-7.30
2018-02-07T22:45:05.200Z,-7.30
2018-02-07T22:47:33.448Z,-7.40
2018-02-07T22:50:00.929Z,-7.40
2018-02-07T22:52:29.187Z,-7.40
2018-02-07T22:54:56.701Z,-7.40
2018-02-07T22:57:24.194Z,-7.40
2018-02-07T22:59:51.678Z,-7.40
2018-02-07T23:02:19.932Z,-7.60
2018-02-07T23:04:47.407Z,-7.60
2018-02-07T23:07:14.911Z,-7.50
2018-02-07T23:09:42.382Z,-7.60
2018-02-07T23:12:09.879Z,-7.50
2018-02-07T23:14:37.535Z,-7.60
2018-02-07T23:17:05.026Z,-7.60
2018-02-07T23:19:33.264Z,-7.60
2018-02-07T23:22:00.752Z,-7.70
2018-02-07T23:24:29.331Z,-7.70
2018-02-07T23:26:57.723Z,-7.80
2018-02-07T23:29:26.004Z,-7.70
2018-02-07T23:31:53.543Z,-7.80
2018-02-07T23:34:21.041Z,-7.80
2018-02-07T23:36:48.538Z,-7.80
2018-02-07T23:39:16.049Z,-7.80
2018-02-07T23:41:43.564Z,-7.80
2018-02-07T23:44:11.821Z,-7.60
2018-02-07T23:46:39.290Z,-7.60
2018-02-07T23:49:06.780Z,-7.60
2018-02-07T23:51:35.015Z,-7.60
2018-02-07T23:54:02.498Z,-7.70
2018-02-07T23:56:29.982Z,-7.70
2018-02-07T23:58:58.230Z,-7.70
